Time;durP1;ratioP1;P1;durP2;ratioP2;P2;SDS_P1;SDS_P2;PMS_P1;PMS_P2;Temp;Humidity;BMP_temperature;BMP_pressure;BME280_temperature;BME280_humidity;BME280_pressure;Samples;Min_cycle;Max_cycle;Signal;HPM_P1;HPM_P2
2022/01/03 00:00:38;;;;;;;4.80;3.03;;;;;;;;;;5017046;28;20451;-73
2022/01/03 00:03:11;;;;;;;6.83;3.60;;;;;;;;;;5021810;28;20515;-73
2022/01/03 00:05:38;;;;;;;10.10;3.93;;;;;;;;;;5016583;28;20462;-73
2022/01/03 00:08:07;;;;;;;10.63;6.73;;;;;;;;;;5017268;28;20720;-72
2022/01/03 00:10:35;;;;;;;13.93;3.87;;;;;;;;;;5022209;28;20467;-71
2022/01/03 00:13:06;;;;;;;8.87;3.50;;;;;;;;;;5036828;28;20712;-73
2022/01/03 00:15:34;;;;;;;5.40;3.50;;;;;;;;;;5037059;28;20581;-73
2022/01/03 00:18:06;;;;;;;9.47;4.70;;;;;;;;;;5031610;28;20451;-73
2022/01/03 00:20:45;;;;;;;;;;;;;;;;;;;;;
2022/01/03 00:23:15;;;;;;;7.37;3.90;;;;;;;;;;4999338;28;20465;-73
2022/01/03 00:25:46;;;;;;;10.27;4.97;;;;;;;;;;5016457;28;20444;-73
2022/01/03 00:28:17;;;;;;;7.77;4.30;;;;;;;;;;5017259;28;20467;-73
2022/01/03 00:30:46;;;;;;;10.97;5.30;;;;;;;;;;5026812;28;20461;-73
2022/01/03 00:33:17;;;;;;;8.47;4.40;;;;;;;;;;5019457;28;20876;-73
2022/01/03 00:35:45;;;;;;;11.40;4.80;;;;;;;;;;5016835;28;20531;-73
2022/01/03 00:38:15;;;;;;;6.47;4.40;;;;;;;;;;5016520;28;20765;-73
2022/01/03 00:40:42;;;;;;;5.47;3.57;;;;;;;;;;5016660;28;20501;-73
2022/01/03 00:43:11;;;;;;;7.80;3.70;;;;;;;;;;5020691;28;20451;-73
2022/01/03 00:45:41;;;;;;;5.33;3.80;;;;;;;;;;5035695;28;20798;-73
2022/01/03 00:48:12;;;;;;;3.67;3.00;;;;;;;;;;5037428;28;20454;-73
2022/01/03 00:50:41;;;;;;;5.20;3.23;;;;;;;;;;5037311;28;20443;-73
2022/01/03 00:53:09;;;;;;;5.57;4.00;;;;;;;;;;5022983;28;20463;-72
2022/01/03 00:55:39;;;;;;;5.07;2.80;;;;;;;;;;5033436;28;20516;-73
2022/01/03 00:58:12;;;;;;;6.20;4.27;;;;;;;;;;5036561;28;20462;-73
2022/01/03 01:00:42;;;;;;;8.20;4.00;;;;;;;;;;5035731;28;20466;-73
2022/01/03 01:03:12;;;;;;;7.10;3.27;;;;;;;;;;5020897;28;20760;-73
2022/01/03 01:05:41;;;;;;;4.10;3.70;;;;;;;;;;5030896;28;20883;-73
2022/01/03 01:08:11;;;;;;;4.43;3.00;;;;;;;;;;5040190;28;20454;-73
2022/01/03 01:10:41;;;;;;;9.00;3.40;;;;;;;;;;5040406;28;20552;-73
2022/01/03 01:13:10;;;;;;;3.97;2.43;;;;;;;;;;5040196;28;20451;-73
2022/01/03 01:15:38;;;;;;;4.90;3.90;;;;;;;;;;5039958;28;20747;-73
2022/01/03 01:18:08;;;;;;;2.60;2.37;;;;;;;;;;5040206;28;20472;-73
2022/01/03 01:20:39;;;;;;;7.90;5.00;;;;;;;;;;5037667;28;20886;-72
2022/01/03 01:23:06;;;;;;;4.90;2.50;;;;;;;;;;5062041;28;20474;-74
2022/01/03 01:28:20;;;;;;;2.37;1.60;;;;;;;;;;5040502;28;20445;-73
2022/01/03 01:30:50;;;;;;;5.63;2.03;;;;;;;;;;5040705;28;20465;-73
2022/01/03 01:33:21;;;;;;;2.80;1.93;;;;;;;;;;5040218;28;20516;-73
2022/01/03 01:35:53;;;;;;;3.03;1.50;;;;;;;;;;5056589;28;20897;-73
2022/01/03 01:38:21;;;;;;;2.13;1.67;;;;;;;;;;5060687;28;20484;-73
2022/01/03 01:40:50;;;;;;;3.40;2.17;;;;;;;;;;5060033;28;20499;-73
2022/01/03 01:43:20;;;;;;;2.67;1.87;;;;;;;;;;5055097;28;20553;-73
2022/01/03 01:45:49;;;;;;;1.80;1.13;;;;;;;;;;5050700;28;20526;-73
2022/01/03 01:48:18;;;;;;;2.57;1.60;;;;;;;;;;5059840;28;20865;-73
2022/01/03 01:50:51;;;;;;;2.80;1.90;;;;;;;;;;5060286;28;20465;-74
2022/01/03 01:53:22;;;;;;;3.43;1.60;;;;;;;;;;5058352;28;20741;-74
2022/01/03 01:55:50;;;;;;;2.70;1.27;;;;;;;;;;5057595;28;20554;-73
2022/01/03 01:58:26;;;;;;;4.43;1.20;;;;;;;;;;5058148;28;20645;-73
2022/01/03 02:00:59;;;;;;;1.53;0.90;;;;;;;;;;5039715;28;20773;-73
2022/01/03 02:03:28;;;;;;;1.47;0.80;;;;;;;;;;5043445;28;20486;-73
2022/01/03 02:06:02;;;;;;;2.13;0.80;;;;;;;;;;5060175;28;20468;-72
2022/01/03 02:08:34;;;;;;;1.53;0.90;;;;;;;;;;5060450;28;20467;-72
2022/01/03 02:11:07;;;;;;;1.60;1.00;;;;;;;;;;5055049;28;20468;-72
2022/01/03 02:13:35;;;;;;;2.97;1.20;;;;;;;;;;5059481;28;20493;-72
2022/01/03 02:16:04;;;;;;;2.17;1.03;;;;;;;;;;5059910;28;20528;-73
2022/01/03 02:18:32;;;;;;;1.73;1.03;;;;;;;;;;5039686;28;20883;-72
2022/01/03 02:21:03;;;;;;;1.70;0.70;;;;;;;;;;5039548;28;20878;-73
2022/01/03 02:23:31;;;;;;;1.80;0.77;;;;;;;;;;5044532;28;20522;-72
2022/01/03 02:26:00;;;;;;;1.50;0.90;;;;;;;;;;5059856;28;20495;-73
2022/01/03 02:28:28;;;;;;;1.63;0.60;;;;;;;;;;5059346;28;20446;-72
2022/01/03 02:30:56;;;;;;;1.40;0.80;;;;;;;;;;5042218;28;20501;-73
2022/01/03 02:33:23;;;;;;;1.20;0.50;;;;;;;;;;5039865;28;20458;-73
2022/01/03 02:35:51;;;;;;;1.30;0.60;;;;;;;;;;5039844;28;20898;-74
2022/01/03 02:38:20;;;;;;;1.20;0.60;;;;;;;;;;5039962;28;20481;-73
2022/01/03 02:40:48;;;;;;;1.50;0.50;;;;;;;;;;5039309;28;20616;-73
2022/01/03 02:43:18;;;;;;;1.37;0.70;;;;;;;;;;5039504;28;20585;-73
2022/01/03 02:45:46;;;;;;;3.73;1.03;;;;;;;;;;5040434;28;20859;-73
2022/01/03 02:48:14;;;;;;;1.13;0.50;;;;;;;;;;5054240;28;20460;-73
2022/01/03 02:50:44;;;;;;;1.10;0.50;;;;;;;;;;5057264;28;20453;-73
2022/01/03 02:53:12;;;;;;;2.83;0.60;;;;;;;;;;5059148;28;20488;-73
2022/01/03 02:55:41;;;;;;;1.30;0.60;;;;;;;;;;5040939;28;20474;-73
2022/01/03 02:58:08;;;;;;;1.30;0.70;;;;;;;;;;5038679;28;20453;-73
2022/01/03 03:00:37;;;;;;;1.50;1.20;;;;;;;;;;5053312;28;20480;-73
2022/01/03 03:03:05;;;;;;;1.87;0.90;;;;;;;;;;5044509;28;20457;-72
2022/01/03 03:05:33;;;;;;;2.10;0.50;;;;;;;;;;5038988;28;20466;-73
2022/01/03 03:08:00;;;;;;;1.10;0.50;;;;;;;;;;5039033;28;20496;-73
2022/01/03 03:10:28;;;;;;;3.27;0.67;;;;;;;;;;5055364;28;20464;-73
2022/01/03 03:12:57;;;;;;;1.30;0.70;;;;;;;;;;5058389;28;20453;-73
2022/01/03 03:15:25;;;;;;;1.30;0.60;;;;;;;;;;5047507;28;20473;-73
2022/01/03 03:17:52;;;;;;;1.50;0.80;;;;;;;;;;5037892;28;20890;-73
2022/01/03 03:20:21;;;;;;;2.60;0.70;;;;;;;;;;5048537;28;21089;-73
2022/01/03 03:22:50;;;;;;;3.10;0.87;;;;;;;;;;5057945;28;20449;-73
2022/01/03 03:25:18;;;;;;;2.90;0.73;;;;;;;;;;5058089;28;20454;-73
2022/01/03 03:27:47;;;;;;;1.30;0.60;;;;;;;;;;5056838;28;20511;-73
2022/01/03 03:30:17;;;;;;;1.53;0.70;;;;;;;;;;5050532;28;20527;-73
2022/01/03 03:32:45;;;;;;;1.43;0.80;;;;;;;;;;5043121;28;20465;-73
2022/01/03 03:35:13;;;;;;;1.50;1.00;;;;;;;;;;5038005;28;20863;-73
2022/01/03 03:37:41;;;;;;;1.30;0.60;;;;;;;;;;5038984;28;20607;-73
2022/01/03 03:40:09;;;;;;;1.40;0.70;;;;;;;;;;5057589;28;20536;-74
2022/01/03 03:42:39;;;;;;;1.10;0.50;;;;;;;;;;5058592;28;20481;-73
2022/01/03 03:45:07;;;;;;;1.60;0.83;;;;;;;;;;5057097;28;21037;-73
2022/01/03 03:47:36;;;;;;;5.40;1.20;;;;;;;;;;5047712;28;20462;-73
2022/01/03 03:50:05;;;;;;;1.87;0.90;;;;;;;;;;5045234;28;20465;-74
2022/01/03 03:52:32;;;;;;;3.87;0.70;;;;;;;;;;5057516;28;20468;-73
2022/01/03 03:55:00;;;;;;;3.27;1.23;;;;;;;;;;5057291;28;20450;-73
2022/01/03 03:57:28;;;;;;;1.30;0.60;;;;;;;;;;5045074;28;20497;-73
2022/01/03 03:59:55;;;;;;;2.27;0.90;;;;;;;;;;5037462;28;20470;-73
2022/01/03 04:02:23;;;;;;;2.37;1.27;;;;;;;;;;5038054;28;20481;-73
2022/01/03 04:04:52;;;;;;;6.47;2.10;;;;;;;;;;5057488;28;20453;-73
2022/01/03 04:07:20;;;;;;;3.53;1.03;;;;;;;;;;5058112;28;20881;-73
2022/01/03 04:09:48;;;;;;;4.07;1.07;;;;;;;;;;5042984;28;20483;-73
2022/01/03 04:12:15;;;;;;;5.67;1.40;;;;;;;;;;5037307;28;20504;-73
2022/01/03 04:14:45;;;;;;;5.20;1.50;;;;;;;;;;5037279;28;20497;-73
2022/01/03 04:17:14;;;;;;;4.83;1.40;;;;;;;;;;5037022;28;20564;-73
2022/01/03 04:19:41;;;;;;;3.10;1.30;;;;;;;;;;5037302;28;20553;-73
2022/01/03 04:22:10;;;;;;;2.90;0.90;;;;;;;;;;5046030;28;20755;-73
2022/01/03 04:24:38;;;;;;;2.30;0.93;;;;;;;;;;5057061;28;20533;-73
2022/01/03 04:27:06;;;;;;;7.73;1.97;;;;;;;;;;5057331;28;20878;-72
2022/01/03 04:29:34;;;;;;;3.03;1.40;;;;;;;;;;5056687;28;20453;-72
2022/01/03 04:32:02;;;;;;;10.03;2.30;;;;;;;;;;5039352;28;20462;-72
2022/01/03 04:34:30;;;;;;;7.00;1.87;;;;;;;;;;5036791;28;20454;-72
2022/01/03 04:36:58;;;;;;;4.23;2.30;;;;;;;;;;5039270;28;20564;-72
2022/01/03 04:39:27;;;;;;;7.87;2.90;;;;;;;;;;5037141;28;20526;-72
2022/01/03 04:41:55;;;;;;;5.67;2.43;;;;;;;;;;5037768;28;20465;-72
2022/01/03 04:44:22;;;;;;;6.13;3.10;;;;;;;;;;5037569;28;20486;-72
2022/01/03 04:46:51;;;;;;;6.47;3.03;;;;;;;;;;5037589;28;20463;-72
2022/01/03 04:49:19;;;;;;;4.77;2.47;;;;;;;;;;5037395;28;20518;-72
2022/01/03 04:51:46;;;;;;;9.27;2.50;;;;;;;;;;5037014;28;20569;-72
2022/01/03 04:54:14;;;;;;;8.10;3.77;;;;;;;;;;5049102;28;20468;-71
2022/01/03 04:56:43;;;;;;;5.93;3.60;;;;;;;;;;5055150;28;20508;-72
2022/01/03 04:59:10;;;;;;;14.27;5.33;;;;;;;;;;5040007;28;20898;-72
2022/01/03 05:01:39;;;;;;;8.27;4.00;;;;;;;;;;5037077;28;20465;-72
2022/01/03 05:04:06;;;;;;;8.70;4.20;;;;;;;;;;5036915;28;20469;-72
2022/01/03 05:06:49;;;;;;;5.40;3.60;;;;;;;;;;5044121;28;20477;-72
2022/01/03 05:09:17;;;;;;;3.73;1.90;;;;;;;;;;5042435;28;20727;-72
2022/01/03 05:11:46;;;;;;;15.80;4.00;;;;;;;;;;5036992;28;20489;-72
2022/01/03 05:14:14;;;;;;;7.87;3.13;;;;;;;;;;5036618;28;20553;-71
2022/01/03 05:16:42;;;;;;;7.90;2.80;;;;;;;;;;5037684;28;20458;-72
2022/01/03 05:19:09;;;;;;;5.77;2.07;;;;;;;;;;5036819;28;20469;-72
2022/01/03 05:21:37;;;;;;;8.10;2.67;;;;;;;;;;5039451;28;20455;-72
2022/01/03 05:24:05;;;;;;;10.30;3.87;;;;;;;;;;5050461;28;20534;-71
2022/01/03 05:26:32;;;;;;;4.63;2.10;;;;;;;;;;5044829;28;20457;-71
2022/01/03 05:29:01;;;;;;;7.53;5.33;;;;;;;;;;5056766;28;20461;-71
2022/01/03 05:31:29;;;;;;;7.60;2.80;;;;;;;;;;5056507;28;20456;-72
2022/01/03 05:33:56;;;;;;;9.77;2.67;;;;;;;;;;5041015;28;20522;-72
2022/01/03 05:36:24;;;;;;;8.60;2.83;;;;;;;;;;5035902;28;20446;-73
2022/01/03 05:38:52;;;;;;;6.97;2.07;;;;;;;;;;5036880;28;20589;-73
2022/01/03 05:41:20;;;;;;;13.13;3.50;;;;;;;;;;5056891;28;20936;-73
2022/01/03 05:43:49;;;;;;;9.43;3.10;;;;;;;;;;5056108;28;20497;-73
2022/01/03 05:46:18;;;;;;;14.60;5.20;;;;;;;;;;5054805;28;20542;-73
2022/01/03 05:48:45;;;;;;;13.87;2.90;;;;;;;;;;5060210;28;20457;-72
2022/01/03 05:51:13;;;;;;;10.00;3.67;;;;;;;;;;5059603;28;20449;-72
2022/01/03 05:53:41;;;;;;;10.80;2.73;;;;;;;;;;5058931;28;20535;-72
2022/01/03 05:56:14;;;;;;;8.57;3.53;;;;;;;;;;5059468;28;20799;-72
2022/01/03 05:58:42;;;;;;;25.17;4.03;;;;;;;;;;5059756;28;20500;-72
2022/01/03 06:01:10;;;;;;;12.47;3.40;;;;;;;;;;5055632;28;20459;-72
2022/01/03 06:03:40;;;;;;;8.23;2.90;;;;;;;;;;5039795;28;20466;-72
2022/01/03 06:06:30;;;;;;;10.53;4.07;;;;;;;;;;5039219;28;20546;-72
2022/01/03 06:09:10;;;;;;;6.50;3.40;;;;;;;;;;5039774;28;20472;-73
2022/01/03 06:11:37;;;;;;;14.30;4.40;;;;;;;;;;5054836;28;20461;-73
2022/01/03 06:14:05;;;;;;;15.07;3.67;;;;;;;;;;5059902;28;20504;-73
2022/01/03 06:16:33;;;;;;;9.77;3.00;;;;;;;;;;5056864;28;20465;-73
2022/01/03 06:19:02;;;;;;;11.03;3.50;;;;;;;;;;5038808;28;20551;-73
2022/01/03 06:21:30;;;;;;;11.23;3.07;;;;;;;;;;5039738;28;20458;-73
2022/01/03 06:23:57;;;;;;;13.20;3.20;;;;;;;;;;5043107;28;20465;-73
2022/01/03 06:26:25;;;;;;;5.57;2.90;;;;;;;;;;5058785;28;20481;-72
2022/01/03 06:28:53;;;;;;;16.93;7.20;;;;;;;;;;5052400;28;20531;-73
2022/01/03 06:31:23;;;;;;;6.80;2.77;;;;;;;;;;5039417;28;20878;-73
2022/01/03 06:33:51;;;;;;;4.40;2.70;;;;;;;;;;5057867;28;20468;-73
2022/01/03 06:36:20;;;;;;;10.20;2.50;;;;;;;;;;5054186;28;20541;-73
2022/01/03 06:38:48;;;;;;;5.70;2.73;;;;;;;;;;5058280;28;20493;-73
2022/01/03 06:41:16;;;;;;;3.30;1.70;;;;;;;;;;5058153;28;20513;-72
2022/01/03 06:43:43;;;;;;;12.57;2.27;;;;;;;;;;5041341;28;20466;-72
2022/01/03 06:46:14;;;;;;;10.70;3.90;;;;;;;;;;5039462;28;20490;-76
2022/01/03 06:48:49;;;;;;;13.57;3.07;;;;;;;;;;5044644;28;20549;-72
2022/01/03 06:51:17;;;;;;;10.47;3.17;;;;;;;;;;5037848;28;20464;-72
2022/01/03 06:53:46;;;;;;;13.87;3.70;;;;;;;;;;5038088;28;20809;-72
2022/01/03 06:56:14;;;;;;;11.00;2.20;;;;;;;;;;5054390;28;20807;-72
2022/01/03 06:58:42;;;;;;;19.87;3.00;;;;;;;;;;5056901;28;20500;-72
2022/01/03 07:01:10;;;;;;;26.23;2.53;;;;;;;;;;5051068;28;20453;-72
2022/01/03 07:03:38;;;;;;;10.83;2.13;;;;;;;;;;5051544;28;20769;-71
2022/01/03 07:06:06;;;;;;;7.63;3.90;;;;;;;;;;5043085;28;20485;-72
2022/01/03 07:08:33;;;;;;;8.33;2.93;;;;;;;;;;5039256;28;20600;-72
2022/01/03 07:19:49;;;;;;;9.00;1.70;;;;;;;;;;5056816;28;20457;-72
2022/01/03 07:22:27;;;;;;;6.00;1.67;;;;;;;;;;5057038;28;20877;-71
2022/01/03 07:25:02;;;;;;;8.43;3.20;;;;;;;;;;5036651;28;20549;-72
2022/01/03 07:30:19;;;;;;;8.33;2.40;;;;;;;;;;5041967;28;20561;-71
2022/01/03 07:35:43;;;;;;;8.13;2.00;;;;;;;;;;5051260;28;20456;-72
2022/01/03 07:38:10;;;;;;;15.63;5.50;;;;;;;;;;5050803;28;20489;-72
2022/01/03 07:40:38;;;;;;;6.00;2.10;;;;;;;;;;5037506;28;20688;-72
2022/01/03 07:43:05;;;;;;;7.63;2.60;;;;;;;;;;5054109;28;20462;-73
2022/01/03 07:45:35;;;;;;;13.23;2.40;;;;;;;;;;5051679;28;21034;-72
2022/01/03 07:48:03;;;;;;;13.23;4.00;;;;;;;;;;5055749;28;20892;-73
2022/01/03 07:50:31;;;;;;;13.53;2.70;;;;;;;;;;5050703;28;20466;-73
2022/01/03 07:53:00;;;;;;;10.83;2.77;;;;;;;;;;5051710;28;20556;-73
2022/01/03 07:55:28;;;;;;;7.77;2.77;;;;;;;;;;5056060;28;20468;-73
2022/01/03 07:57:56;;;;;;;12.10;2.90;;;;;;;;;;5056543;28;20546;-73
2022/01/03 08:00:23;;;;;;;16.70;2.80;;;;;;;;;;5054223;28;20504;-72
2022/01/03 08:02:53;;;;;;;11.47;2.57;;;;;;;;;;5053934;28;20464;-72
2022/01/03 08:05:20;;;;;;;13.03;2.80;;;;;;;;;;5055776;28;20457;-72
2022/01/03 08:07:48;;;;;;;6.73;1.97;;;;;;;;;;5055566;28;20457;-72
2022/01/03 08:10:17;;;;;;;8.00;2.50;;;;;;;;;;5055245;28;20458;-73
2022/01/03 08:12:45;;;;;;;11.70;2.80;;;;;;;;;;5055367;28;20449;-73
2022/01/03 08:15:12;;;;;;;9.97;3.40;;;;;;;;;;5041085;28;20516;-72
2022/01/03 08:17:44;;;;;;;12.97;2.60;;;;;;;;;;5034664;28;20584;-73
2022/01/03 08:20:13;;;;;;;4.33;1.17;;;;;;;;;;5035053;28;20515;-72
2022/01/03 08:22:41;;;;;;;11.37;3.47;;;;;;;;;;5034337;28;20983;-73
2022/01/03 08:25:11;;;;;;;8.23;2.50;;;;;;;;;;5035262;28;20588;-72
2022/01/03 08:27:39;;;;;;;14.90;2.70;;;;;;;;;;5043389;28;20489;-73
2022/01/03 08:30:07;;;;;;;14.30;3.60;;;;;;;;;;5054864;28;20461;-72
2022/01/03 08:32:35;;;;;;;11.13;2.63;;;;;;;;;;5053581;28;20473;-73
2022/01/03 08:35:08;;;;;;;8.63;3.50;;;;;;;;;;5055623;28;20465;-73
2022/01/03 08:37:42;;;;;;;13.37;4.73;;;;;;;;;;5044184;28;20457;-73
2022/01/03 08:40:10;;;;;;;13.13;3.03;;;;;;;;;;5037654;28;21017;-72
2022/01/03 08:42:38;;;;;;;20.70;5.57;;;;;;;;;;5036290;28;20517;-72
2022/01/03 08:45:12;;;;;;;10.10;3.30;;;;;;;;;;5035152;28;20540;-73
2022/01/03 08:47:41;;;;;;;17.97;3.77;;;;;;;;;;5031372;28;20485;-72
2022/01/03 08:50:10;;;;;;;19.30;4.00;;;;;;;;;;5044037;28;20980;-72
2022/01/03 08:52:39;;;;;;;10.53;5.53;;;;;;;;;;5035455;28;20481;-72
2022/01/03 08:55:07;;;;;;;10.20;3.70;;;;;;;;;;5054308;28;20890;-72
2022/01/03 08:57:37;;;;;;;11.30;3.10;;;;;;;;;;5040700;28;20462;-72
2022/01/03 09:00:07;;;;;;;13.47;3.83;;;;;;;;;;5043567;28;20470;-73
2022/01/03 09:02:37;;;;;;;10.40;3.20;;;;;;;;;;5035206;28;20469;-73
2022/01/03 09:05:06;;;;;;;15.93;3.20;;;;;;;;;;5043363;28;20466;-74
2022/01/03 09:07:36;;;;;;;12.50;2.90;;;;;;;;;;5035058;28;20461;-73
2022/01/03 09:10:10;;;;;;;17.70;3.70;;;;;;;;;;5035282;28;20926;-73
2022/01/03 09:12:37;;;;;;;15.47;3.20;;;;;;;;;;5034718;28;20462;-73
2022/01/03 09:15:06;;;;;;;10.20;5.33;;;;;;;;;;5034315;28;20462;-73
2022/01/03 09:17:37;;;;;;;11.80;3.13;;;;;;;;;;5035353;28;20481;-73
2022/01/03 09:20:05;;;;;;;7.37;3.97;;;;;;;;;;5049951;28;20769;-72
2022/01/03 09:22:38;;;;;;;9.77;4.60;;;;;;;;;;5049861;28;20561;-72
2022/01/03 09:30:37;;;;;;;27.70;5.67;;;;;;;;;;5056422;28;20464;-73
2022/01/03 09:33:05;;;;;;;14.43;3.40;;;;;;;;;;5058806;28;20465;-72
2022/01/03 09:35:33;;;;;;;10.00;3.00;;;;;;;;;;5045310;28;20920;-72
2022/01/03 09:38:01;;;;;;;18.30;3.10;;;;;;;;;;5038591;28;20469;-73
2022/01/03 09:40:31;;;;;;;16.00;7.13;;;;;;;;;;5044547;28;20937;-73
2022/01/03 09:43:01;;;;;;;18.43;5.60;;;;;;;;;;5058016;28;20472;-73
2022/01/03 09:45:32;;;;;;;12.03;4.70;;;;;;;;;;5053486;28;20527;-72
2022/01/03 09:48:03;;;;;;;8.67;2.60;;;;;;;;;;5041355;28;20520;-73
2022/01/03 09:50:37;;;;;;;14.87;3.00;;;;;;;;;;5038735;28;20454;-73
2022/01/03 09:53:06;;;;;;;14.50;4.10;;;;;;;;;;5036976;28;20746;-72
2022/01/03 09:55:36;;;;;;;6.87;1.97;;;;;;;;;;5037387;28;20942;-72
2022/01/03 09:58:04;;;;;;;7.40;2.83;;;;;;;;;;5038188;28;20461;-72
2022/01/03 10:00:33;;;;;;;18.37;5.27;;;;;;;;;;5050681;28;20457;-72
2022/01/03 10:03:01;;;;;;;20.83;4.93;;;;;;;;;;5053941;28;20445;-72
2022/01/03 10:05:28;;;;;;;11.03;3.33;;;;;;;;;;5036629;28;20464;-72
2022/01/03 10:07:57;;;;;;;8.07;4.20;;;;;;;;;;5040649;28;20450;-72
2022/01/03 10:10:27;;;;;;;9.37;3.43;;;;;;;;;;5038110;28;20461;-72
2022/01/03 10:13:02;;;;;;;8.33;3.90;;;;;;;;;;5050378;28;20446;-73
2022/01/03 10:15:30;;;;;;;13.83;5.43;;;;;;;;;;5050419;28;20522;-73
2022/01/03 10:17:58;;;;;;;17.50;5.97;;;;;;;;;;5050947;28;21047;-73
2022/01/03 10:20:29;;;;;;;12.30;4.60;;;;;;;;;;5054137;28;20745;-73
2022/01/03 10:23:09;;;;;;;10.40;2.70;;;;;;;;;;5048380;28;20540;-73
2022/01/03 10:25:37;;;;;;;16.17;4.30;;;;;;;;;;5045946;28;20438;-73
2022/01/03 10:28:08;;;;;;;16.20;3.40;;;;;;;;;;5051634;28;20458;-73
2022/01/03 10:30:40;;;;;;;18.80;4.93;;;;;;;;;;5055947;28;20446;-72
2022/01/03 10:33:12;;;;;;;4.63;2.87;;;;;;;;;;5044608;28;20504;-73
2022/01/03 10:35:45;;;;;;;8.40;3.60;;;;;;;;;;5049590;28;20447;-73
2022/01/03 10:38:36;;;;;;;5.77;2.13;;;;;;;;;;5050833;28;20441;-73
2022/01/03 10:41:16;;;;;;;20.20;4.40;;;;;;;;;;5053112;28;20459;-73
2022/01/03 10:43:48;;;;;;;11.03;4.13;;;;;;;;;;5043451;28;20553;-73
2022/01/03 10:46:20;;;;;;;14.37;4.90;;;;;;;;;;5043014;28;20467;-73
2022/01/03 10:48:48;;;;;;;15.53;4.67;;;;;;;;;;5051733;28;20473;-72
2022/01/03 10:51:35;;;;;;;10.57;4.33;;;;;;;;;;5038882;28;20474;-72
2022/01/03 10:54:06;;;;;;;9.20;6.67;;;;;;;;;;5051433;28;20449;-72
2022/01/03 10:56:36;;;;;;;5.90;3.63;;;;;;;;;;5052669;28;20459;-72
2022/01/03 10:59:21;;;;;;;7.40;3.30;;;;;;;;;;5050808;28;20496;-72
2022/01/03 11:01:56;;;;;;;4.87;1.90;;;;;;;;;;5048980;28;21093;-71
2022/01/03 11:04:38;;;;;;;11.87;3.27;;;;;;;;;;5047367;28;20556;-70
2022/01/03 11:13:04;;;;;;;14.03;4.83;;;;;;;;;;5051445;28;20449;-71
2022/01/03 11:15:33;;;;;;;13.63;5.70;;;;;;;;;;5046582;28;20462;-72
2022/01/03 11:18:14;;;;;;;14.60;4.17;;;;;;;;;;5055386;28;20458;-72
2022/01/03 11:20:44;;;;;;;10.90;4.07;;;;;;;;;;5053613;28;20467;-70
2022/01/03 11:23:28;;;;;;;13.33;4.40;;;;;;;;;;5048565;28;20485;-72
2022/01/03 11:25:56;;;;;;;7.63;2.60;;;;;;;;;;5038266;28;20454;-72
2022/01/03 11:28:29;;;;;;;18.10;4.10;;;;;;;;;;5056798;28;20476;-71
2022/01/03 11:31:01;;;;;;;12.00;4.23;;;;;;;;;;5053346;28;20457;-72
2022/01/03 11:33:30;;;;;;;18.80;4.33;;;;;;;;;;5042248;28;20464;-72
2022/01/03 11:35:59;;;;;;;16.40;4.27;;;;;;;;;;5042567;28;20967;-73
2022/01/03 11:38:30;;;;;;;4.70;2.30;;;;;;;;;;5040199;28;20463;-71
2022/01/03 11:41:04;;;;;;;6.93;2.70;;;;;;;;;;5042066;28;20552;-71
2022/01/03 11:43:36;;;;;;;14.33;3.80;;;;;;;;;;5049879;28;20453;-71
2022/01/03 11:46:06;;;;;;;9.10;3.37;;;;;;;;;;5055185;28;20583;-72
2022/01/03 11:48:34;;;;;;;4.23;2.17;;;;;;;;;;5048067;28;20453;-73
2022/01/03 11:51:04;;;;;;;7.90;3.10;;;;;;;;;;5053989;28;20530;-70
2022/01/03 11:53:36;;;;;;;6.73;3.27;;;;;;;;;;5055974;28;20469;-70
2022/01/03 11:56:15;;;;;;;11.40;3.90;;;;;;;;;;5051953;28;20519;-73
2022/01/03 11:58:52;;;;;;;8.80;3.27;;;;;;;;;;5055416;28;20476;-72
2022/01/03 12:04:19;;;;;;;18.83;4.50;;;;;;;;;;5053174;28;20515;-73
2022/01/03 12:06:53;;;;;;;9.60;4.20;;;;;;;;;;5042839;28;20712;-73
2022/01/03 12:09:30;;;;;;;6.60;3.53;;;;;;;;;;5034052;28;21174;-72
2022/01/03 12:11:58;;;;;;;8.20;3.83;;;;;;;;;;5034400;28;20557;-72
2022/01/03 12:14:27;;;;;;;9.37;3.47;;;;;;;;;;5038674;28;20450;-71
2022/01/03 12:17:06;;;;;;;3.40;2.20;;;;;;;;;;5049878;28;20503;-72
2022/01/03 12:19:39;;;;;;;6.60;3.17;;;;;;;;;;5051681;28;20477;-72
2022/01/03 12:22:10;;;;;;;15.87;4.43;;;;;;;;;;5049934;28;20455;-71
2022/01/03 12:24:50;;;;;;;7.63;2.97;;;;;;;;;;5045677;28;20487;-71
2022/01/03 12:27:42;;;;;;;8.70;2.73;;;;;;;;;;5043757;28;20474;-72
2022/01/03 12:30:14;;;;;;;9.87;4.00;;;;;;;;;;5039742;28;20470;-72
2022/01/03 12:33:07;;;;;;;19.83;4.70;;;;;;;;;;5046905;28;20469;-73
2022/01/03 12:35:40;;;;;;;12.43;2.67;;;;;;;;;;5043905;28;20503;-73
2022/01/03 12:38:17;;;;;;;14.63;2.87;;;;;;;;;;5050293;28;20449;-72
2022/01/03 12:40:53;;;;;;;12.87;3.50;;;;;;;;;;5047731;28;20515;-72
2022/01/03 12:43:34;;;;;;;12.00;4.40;;;;;;;;;;5042524;28;20458;-72
2022/01/03 12:46:29;;;;;;;8.43;3.63;;;;;;;;;;5036348;28;20449;-72
2022/01/03 12:49:18;;;;;;;11.80;2.03;;;;;;;;;;5050193;28;20461;-72
2022/01/03 12:51:45;;;;;;;8.90;3.03;;;;;;;;;;5042692;28;20888;-72
2022/01/03 12:54:13;;;;;;;6.63;2.63;;;;;;;;;;5049750;28;20905;-73
2022/01/03 12:56:41;;;;;;;7.17;3.30;;;;;;;;;;5036959;28;20524;-72
2022/01/03 12:59:13;;;;;;;10.60;3.10;;;;;;;;;;5039285;28;20482;-72
2022/01/03 13:01:45;;;;;;;7.33;2.30;;;;;;;;;;5046888;28;20521;-72
2022/01/03 13:04:35;;;;;;;12.47;4.40;;;;;;;;;;5059098;28;20458;-72
2022/01/03 13:07:03;;;;;;;4.10;2.10;;;;;;;;;;5044413;28;20463;-71
2022/01/03 13:09:32;;;;;;;12.03;3.80;;;;;;;;;;5050904;28;20446;-73
2022/01/03 13:12:05;;;;;;;13.73;3.80;;;;;;;;;;5043124;28;20466;-73
2022/01/03 13:14:36;;;;;;;21.37;4.27;;;;;;;;;;5052491;28;20458;-72
2022/01/03 13:17:09;;;;;;;7.50;2.90;;;;;;;;;;5053793;28;20457;-71
2022/01/03 13:19:43;;;;;;;7.37;2.77;;;;;;;;;;5057861;28;20955;-71
2022/01/03 13:22:14;;;;;;;7.10;3.20;;;;;;;;;;5048128;28;20459;-72
2022/01/03 13:24:44;;;;;;;12.43;3.80;;;;;;;;;;5059712;28;20838;-72
2022/01/03 13:27:16;;;;;;;5.67;3.00;;;;;;;;;;5049065;28;20544;-72
2022/01/03 13:29:57;;;;;;;7.20;3.40;;;;;;;;;;5053858;28;20798;-71
2022/01/03 13:32:40;;;;;;;8.07;2.90;;;;;;;;;;5058742;28;20536;-71
2022/01/03 13:35:17;;;;;;;8.67;3.00;;;;;;;;;;5044326;28;20458;-72
2022/01/03 13:37:45;;;;;;;9.23;2.90;;;;;;;;;;5059581;28;20926;-72
2022/01/03 13:40:23;;;;;;;8.77;2.60;;;;;;;;;;5060199;28;20499;-72
2022/01/03 13:43:00;;;;;;;7.73;3.20;;;;;;;;;;5044806;28;20454;-72
2022/01/03 13:51:05;;;;;;;13.57;4.40;;;;;;;;;;5052996;28;20559;-72
2022/01/03 13:53:47;;;;;;;11.57;4.63;;;;;;;;;;5050365;28;20445;-72
2022/01/03 13:56:23;;;;;;;14.23;3.53;;;;;;;;;;5054740;28;21048;-72
2022/01/03 13:58:59;;;;;;;17.23;3.10;;;;;;;;;;5049102;28;20896;-73
2022/01/03 14:01:27;;;;;;;13.67;4.23;;;;;;;;;;5051237;28;20453;-70
2022/01/03 14:04:08;;;;;;;12.80;3.80;;;;;;;;;;5056714;28;20460;-72
2022/01/03 14:06:38;;;;;;;10.70;3.00;;;;;;;;;;5050118;28;20577;-71
2022/01/03 14:09:25;;;;;;;5.30;1.60;;;;;;;;;;5040520;28;20490;-73
2022/01/03 14:11:56;;;;;;;5.93;3.00;;;;;;;;;;5056628;28;20527;-73
2022/01/03 14:14:44;;;;;;;11.87;2.77;;;;;;;;;;5053378;28;20486;-73
2022/01/03 14:17:21;;;;;;;12.97;3.30;;;;;;;;;;5057004;28;20738;-72
2022/01/03 14:19:59;;;;;;;20.73;3.70;;;;;;;;;;5044203;28;20547;-72
2022/01/03 14:22:45;;;;;;;7.67;3.60;;;;;;;;;;5051377;28;20465;-72
2022/01/03 14:25:17;;;;;;;15.63;3.13;;;;;;;;;;5055875;28;20469;-72
2022/01/03 14:27:50;;;;;;;5.07;2.60;;;;;;;;;;5049870;28;20464;-73
2022/01/03 14:30:20;;;;;;;10.17;3.00;;;;;;;;;;5056200;28;20469;-72
2022/01/03 14:32:57;;;;;;;12.80;2.70;;;;;;;;;;5041407;28;20551;-73
2022/01/03 14:35:33;;;;;;;15.67;4.83;;;;;;;;;;5038233;28;20837;-71
2022/01/03 14:38:16;;;;;;;7.83;3.67;;;;;;;;;;5036573;28;20851;-70
2022/01/03 14:40:49;;;;;;;8.27;4.30;;;;;;;;;;5036833;28;20490;-73
2022/01/03 14:43:26;;;;;;;6.90;3.43;;;;;;;;;;5042780;28;20889;-73
2022/01/03 14:46:08;;;;;;;11.43;3.17;;;;;;;;;;5036895;28;20467;-72
2022/01/03 14:48:41;;;;;;;15.93;5.97;;;;;;;;;;5043733;28;20466;-71
2022/01/03 14:51:17;;;;;;;17.90;4.87;;;;;;;;;;5051963;28;20515;-73
2022/01/03 14:56:46;;;;;;;11.47;5.10;;;;;;;;;;5148042;27;20367;-73
2022/01/03 14:59:17;;;;;;;12.00;4.00;;;;;;;;;;5131010;27;20441;-72
2022/01/03 15:01:49;;;;;;;12.40;3.00;;;;;;;;;;5132073;27;21034;-73
2022/01/03 15:04:26;;;;;;;10.10;3.27;;;;;;;;;;5132979;27;20930;-73
2022/01/03 15:06:57;;;;;;;7.30;3.67;;;;;;;;;;5131632;27;20594;-72
2022/01/03 15:09:24;;;;;;;6.23;2.60;;;;;;;;;;5119821;27;20542;-72
2022/01/03 15:11:55;;;;;;;12.20;5.03;;;;;;;;;;5118205;27;20461;-73
2022/01/03 15:14:25;;;;;;;7.33;3.50;;;;;;;;;;5132423;27;20871;-73
2022/01/03 15:16:55;;;;;;;5.57;2.83;;;;;;;;;;5132474;27;21203;-72
2022/01/03 15:19:26;;;;;;;14.07;4.63;;;;;;;;;;5130081;27;20478;-72
2022/01/03 15:21:57;;;;;;;15.73;5.37;;;;;;;;;;5130403;27;20457;-72
2022/01/03 15:24:34;;;;;;;5.40;3.57;;;;;;;;;;5113206;27;20532;-72
2022/01/03 15:27:05;;;;;;;11.50;3.60;;;;;;;;;;5120119;27;20877;-71
2022/01/03 15:29:43;;;;;;;10.90;4.30;;;;;;;;;;5134809;27;20603;-72
2022/01/03 15:32:10;;;;;;;14.33;3.90;;;;;;;;;;5127582;27;20447;-72
2022/01/03 15:34:37;;;;;;;12.87;3.70;;;;;;;;;;5131247;27;20517;-71
2022/01/03 15:37:14;;;;;;;18.70;3.37;;;;;;;;;;5131992;27;20541;-72
2022/01/03 15:39:45;;;;;;;14.20;5.53;;;;;;;;;;5126943;27;20536;-71